sensor_id;sensor_type;location;lat;lon;timestamp;pressure;altitude;pressure_sealevel;temperature;humidity
58295;BME280;45705;55.592;37.460;2023-05-23T00:02:15;99458.31;;;14.27;95.13
58295;BME280;45705;55.592;37.460;2023-05-23T00:04:41;99454.47;;;14.28;95.26
58295;BME280;45705;55.592;37.460;2023-05-23T00:07:07;99447.88;;;14.29;94.88
58295;BME280;45705;55.592;37.460;2023-05-23T00:09:32;99464.28;;;14.20;95.57
58295;BME280;45705;55.592;37.460;2023-05-23T00:11:58;99457.97;;;14.37;91.98
58295;BME280;45705;55.592;37.460;2023-05-23T00:14:24;99466.19;;;14.28;93.69
58295;BME280;45705;55.592;37.460;2023-05-23T00:16:50;99458.66;;;14.16;95.18
58295;BME280;45705;55.592;37.460;2023-05-23T00:19:16;99462.06;;;14.13;95.52
58295;BME280;45705;55.592;37.460;2023-05-23T00:21:42;99468.44;;;14.26;93.96
58295;BME280;45705;55.592;37.460;2023-05-23T00:24:13;99468.97;;;14.20;93.89
58295;BME280;45705;55.592;37.460;2023-05-23T00:26:43;99469.53;;;14.51;88.01
58295;BME280;45705;55.592;37.460;2023-05-23T00:29:08;99461.19;;;14.39;89.13
58295;BME280;45705;55.592;37.460;2023-05-23T00:31:40;99462.34;;;14.29;91.19
58295;BME280;45705;55.592;37.460;2023-05-23T00:34:05;99460.88;;;14.32;91.18
58295;BME280;45705;55.592;37.460;2023-05-23T00:36:31;99472.50;;;14.29;91.29
58295;BME280;45705;55.592;37.460;2023-05-23T00:39:01;99463.81;;;14.18;92.82
58295;BME280;45705;55.592;37.460;2023-05-23T00:41:29;99465.25;;;14.24;91.14
58295;BME280;45705;55.592;37.460;2023-05-23T00:43:56;99457.34;;;14.23;91.15
58295;BME280;45705;55.592;37.460;2023-05-23T00:46:24;99458.03;;;14.20;90.88
58295;BME280;45705;55.592;37.460;2023-05-23T00:48:50;99465.56;;;14.23;90.23
58295;BME280;45705;55.592;37.460;2023-05-23T00:51:16;99455.94;;;14.25;89.57
58295;BME280;45705;55.592;37.460;2023-05-23T00:53:42;99454.94;;;14.30;89.00
58295;BME280;45705;55.592;37.460;2023-05-23T00:56:07;99452.69;;;14.32;87.81
58295;BME280;45705;55.592;37.460;2023-05-23T00:58:33;99464.88;;;14.43;85.09
58295;BME280;45705;55.592;37.460;2023-05-23T01:00:59;99451.84;;;14.40;86.15
58295;BME280;45705;55.592;37.460;2023-05-23T01:03:24;99453.78;;;14.48;84.97
58295;BME280;45705;55.592;37.460;2023-05-23T01:05:53;99447.00;;;14.54;83.97
58295;BME280;45705;55.592;37.460;2023-05-23T01:08:20;99445.38;;;14.53;84.63
58295;BME280;45705;55.592;37.460;2023-05-23T01:10:45;99439.63;;;14.46;84.97
58295;BME280;45705;55.592;37.460;2023-05-23T01:18:58;99440.25;;;14.43;85.07
58295;BME280;45705;55.592;37.460;2023-05-23T01:21:28;99448.00;;;14.41;85.57
58295;BME280;45705;55.592;37.460;2023-05-23T01:26:28;99438.38;;;14.35;86.45
58295;BME280;45705;55.592;37.460;2023-05-23T01:29:03;99440.63;;;14.33;86.75
58295;BME280;45705;55.592;37.460;2023-05-23T01:31:35;99443.16;;;14.38;85.81
58295;BME280;45705;55.592;37.460;2023-05-23T01:34:01;99437.06;;;14.41;85.15
58295;BME280;45705;55.592;37.460;2023-05-23T01:36:27;99437.06;;;14.32;86.05
58295;BME280;45705;55.592;37.460;2023-05-23T01:38:53;99444.47;;;14.32;86.65
58295;BME280;45705;55.592;37.460;2023-05-23T01:41:19;99445.94;;;14.29;85.89
58295;BME280;45705;55.592;37.460;2023-05-23T01:43:44;99443.63;;;14.40;85.21
58295;BME280;45705;55.592;37.460;2023-05-23T01:46:11;99441.72;;;14.41;85.11
58295;BME280;45705;55.592;37.460;2023-05-23T01:48:37;99446.03;;;14.59;82.96
58295;BME280;45705;55.592;37.460;2023-05-23T01:51:03;99443.09;;;14.55;82.15
58295;BME280;45705;55.592;37.460;2023-05-23T01:53:29;99430.53;;;14.72;79.17
58295;BME280;45705;55.592;37.460;2023-05-23T01:55:54;99431.09;;;14.86;77.53
58295;BME280;45705;55.592;37.460;2023-05-23T01:58:20;99427.38;;;14.91;76.94
58295;BME280;45705;55.592;37.460;2023-05-23T02:00:46;99434.50;;;14.83;78.37
58295;BME280;45705;55.592;37.460;2023-05-23T02:03:12;99434.78;;;14.90;77.31
58295;BME280;45705;55.592;37.460;2023-05-23T02:05:37;99431.69;;;15.01;75.26
58295;BME280;45705;55.592;37.460;2023-05-23T02:08:03;99422.88;;;15.16;73.61
58295;BME280;45705;55.592;37.460;2023-05-23T02:10:28;99427.53;;;15.15;75.12
58295;BME280;45705;55.592;37.460;2023-05-23T02:12:54;99429.66;;;15.10;76.14
58295;BME280;45705;55.592;37.460;2023-05-23T02:15:20;99424.63;;;15.42;70.00
58295;BME280;45705;55.592;37.460;2023-05-23T02:17:45;99440.78;;;15.34;72.83
58295;BME280;45705;55.592;37.460;2023-05-23T02:20:12;99432.19;;;15.24;72.83
58295;BME280;45705;55.592;37.460;2023-05-23T02:22:38;99427.28;;;15.29;71.50
58295;BME280;45705;55.592;37.460;2023-05-23T02:25:04;99422.63;;;15.30;71.95
58295;BME280;45705;55.592;37.460;2023-05-23T02:27:31;99422.63;;;15.30;71.47
58295;BME280;45705;55.592;37.460;2023-05-23T02:29:56;99417.19;;;15.21;74.08
58295;BME280;45705;55.592;37.460;2023-05-23T02:32:22;99415.94;;;15.19;73.51
58295;BME280;45705;55.592;37.460;2023-05-23T02:34:47;99429.31;;;15.20;74.03
58295;BME280;45705;55.592;37.460;2023-05-23T02:37:14;99430.59;;;15.14;75.37
58295;BME280;45705;55.592;37.460;2023-05-23T02:39:41;99425.94;;;15.14;75.16
58295;BME280;45705;55.592;37.460;2023-05-23T02:42:07;99426.94;;;15.10;74.37
58295;BME280;45705;55.592;37.460;2023-05-23T02:44:33;99427.16;;;15.05;75.90
58295;BME280;45705;55.592;37.460;2023-05-23T02:46:58;99429.19;;;15.08;75.42
58295;BME280;45705;55.592;37.460;2023-05-23T02:49:24;99427.97;;;14.96;76.74
58295;BME280;45705;55.592;37.460;2023-05-23T02:51:50;99426.22;;;14.92;77.00
58295;BME280;45705;55.592;37.460;2023-05-23T02:54:15;99428.81;;;14.88;78.46
58295;BME280;45705;55.592;37.460;2023-05-23T02:56:41;99428.81;;;14.88;77.90
58295;BME280;45705;55.592;37.460;2023-05-23T02:59:06;99441.91;;;14.83;79.24
58295;BME280;45705;55.592;37.460;2023-05-23T03:01:32;99434.84;;;14.73;80.45
58295;BME280;45705;55.592;37.460;2023-05-23T03:03:58;99441.66;;;14.67;81.23
58295;BME280;45705;55.592;37.460;2023-05-23T03:06:23;99444.75;;;14.56;83.05
58295;BME280;45705;55.592;37.460;2023-05-23T03:08:49;99442.97;;;14.61;81.73
58295;BME280;45705;55.592;37.460;2023-05-23T03:11:15;99434.41;;;14.53;82.62
58295;BME280;45705;55.592;37.460;2023-05-23T03:13:42;99439.00;;;14.41;84.58
58295;BME280;45705;55.592;37.460;2023-05-23T03:16:08;99443.78;;;14.52;84.13
58295;BME280;45705;55.592;37.460;2023-05-23T03:18:33;99443.91;;;14.65;79.52
58295;BME280;45705;55.592;37.460;2023-05-23T03:21:00;99441.31;;;14.68;80.24
58295;BME280;45705;55.592;37.460;2023-05-23T03:23:26;99439.59;;;14.64;81.04
58295;BME280;45705;55.592;37.460;2023-05-23T03:25:51;99430.63;;;14.84;81.91
58295;BME280;45705;55.592;37.460;2023-05-23T03:28:17;99429.25;;;14.99;79.73
58295;BME280;45705;55.592;37.460;2023-05-23T03:30:43;99434.50;;;15.13;77.98
58295;BME280;45705;55.592;37.460;2023-05-23T03:33:09;99426.16;;;15.30;77.02
58295;BME280;45705;55.592;37.460;2023-05-23T03:35:35;99425.84;;;15.53;75.33
58295;BME280;45705;55.592;37.460;2023-05-23T03:38:01;99423.91;;;15.74;73.91
58295;BME280;45705;55.592;37.460;2023-05-23T03:40:27;99424.56;;;15.92;69.54
58295;BME280;45705;55.592;37.460;2023-05-23T03:43:03;99416.75;;;16.28;68.71
58295;BME280;45705;55.592;37.460;2023-05-23T03:45:30;99417.28;;;16.67;66.90
58295;BME280;45705;55.592;37.460;2023-05-23T03:47:56;99420.75;;;17.01;65.13
58295;BME280;45705;55.592;37.460;2023-05-23T03:50:21;99413.63;;;17.00;64.26
58295;BME280;45705;55.592;37.460;2023-05-23T03:52:47;99410.00;;;17.08;63.92
58295;BME280;45705;55.592;37.460;2023-05-23T03:55:13;99407.66;;;17.22;63.99
58295;BME280;45705;55.592;37.460;2023-05-23T03:57:38;99399.41;;;17.22;64.92
58295;BME280;45705;55.592;37.460;2023-05-23T04:00:05;99409.50;;;17.18;65.12
58295;BME280;45705;55.592;37.460;2023-05-23T04:02:42;99409.16;;;17.07;67.68
58295;BME280;45705;55.592;37.460;2023-05-23T04:05:09;99402.34;;;16.89;66.49
58295;BME280;45705;55.592;37.460;2023-05-23T04:07:36;99404.03;;;16.93;64.91
58295;BME280;45705;55.592;37.460;2023-05-23T04:10:02;99409.38;;;16.78;67.26
58295;BME280;45705;55.592;37.460;2023-05-23T04:12:29;99412.25;;;16.69;66.62
58295;BME280;45705;55.592;37.460;2023-05-23T04:14:56;99407.41;;;16.53;67.45
58295;BME280;45705;55.592;37.460;2023-05-23T04:17:24;99420.94;;;16.46;68.95
58295;BME280;45705;55.592;37.460;2023-05-23T04:19:50;99412.00;;;16.37;69.31
58295;BME280;45705;55.592;37.460;2023-05-23T04:22:17;99420.66;;;16.27;69.50
58295;BME280;45705;55.592;37.460;2023-05-23T04:24:43;99424.78;;;16.21;69.65
58295;BME280;45705;55.592;37.460;2023-05-23T04:27:09;99423.34;;;16.14;68.85
58295;BME280;45705;55.592;37.460;2023-05-23T04:29:35;99422.38;;;16.31;69.24
58295;BME280;45705;55.592;37.460;2023-05-23T04:32:03;99418.84;;;16.43;68.77
58295;BME280;45705;55.592;37.460;2023-05-23T04:34:28;99423.63;;;16.34;69.38
58295;BME280;45705;55.592;37.460;2023-05-23T04:36:56;99415.19;;;16.39;70.74
58295;BME280;45705;55.592;37.460;2023-05-23T04:39:22;99408.91;;;16.51;71.54
58295;BME280;45705;55.592;37.460;2023-05-23T04:42:10;99416.31;;;16.26;70.86
58295;BME280;45705;55.592;37.460;2023-05-23T04:45:05;99422.50;;;16.35;71.40
58295;BME280;45705;55.592;37.460;2023-05-23T04:47:47;99417.81;;;16.36;71.25
58295;BME280;45705;55.592;37.460;2023-05-23T04:50:27;99413.16;;;16.61;71.14
58295;BME280;45705;55.592;37.460;2023-05-23T04:52:56;99422.50;;;16.35;70.87
58295;BME280;45705;55.592;37.460;2023-05-23T04:55:21;99417.94;;;16.39;71.62
58295;BME280;45705;55.592;37.460;2023-05-23T04:57:47;99420.81;;;16.55;70.64
58295;BME280;45705;55.592;37.460;2023-05-23T05:00:13;99420.22;;;16.37;71.70
58295;BME280;45705;55.592;37.460;2023-05-23T05:02:40;99415.66;;;16.41;71.32
58295;BME280;45705;55.592;37.460;2023-05-23T05:05:05;99413.63;;;16.50;71.29
58295;BME280;45705;55.592;37.460;2023-05-23T05:07:31;99428.47;;;16.49;71.75
58295;BME280;45705;55.592;37.460;2023-05-23T05:09:58;99418.53;;;16.57;72.23
58295;BME280;45705;55.592;37.460;2023-05-23T05:12:23;99414.09;;;16.77;71.95
58295;BME280;45705;55.592;37.460;2023-05-23T05:14:49;99420.28;;;16.86;71.28
58295;BME280;45705;55.592;37.460;2023-05-23T05:17:15;99421.91;;;16.87;71.77
58295;BME280;45705;55.592;37.460;2023-05-23T05:20:02;99417.50;;;16.74;71.74
58295;BME280;45705;55.592;37.460;2023-05-23T05:22:36;99416.94;;;16.81;72.03
58295;BME280;45705;55.592;37.460;2023-05-23T05:25:08;99416.84;;;16.77;73.08
58295;BME280;45705;55.592;37.460;2023-05-23T05:27:34;99427.00;;;16.77;73.67
58295;BME280;45705;55.592;37.460;2023-05-23T05:30:06;99443.59;;;16.80;72.31
58295;BME280;45705;55.592;37.460;2023-05-23T05:32:38;99432.28;;;16.69;72.68
58295;BME280;45705;55.592;37.460;2023-05-23T05:35:03;99428.50;;;16.74;73.00
58295;BME280;45705;55.592;37.460;2023-05-23T05:37:29;99428.50;;;16.74;73.37
58295;BME280;45705;55.592;37.460;2023-05-23T05:39:55;99428.97;;;16.88;72.88
58295;BME280;45705;55.592;37.460;2023-05-23T05:42:21;99432.53;;;16.89;72.45
58295;BME280;45705;55.592;37.460;2023-05-23T05:44:47;99434.22;;;17.06;71.85
58295;BME280;45705;55.592;37.460;2023-05-23T05:47:13;99428.97;;;16.88;72.21
58295;BME280;45705;55.592;37.460;2023-05-23T05:49:38;99420.50;;;16.93;73.12
58295;BME280;45705;55.592;37.460;2023-05-23T05:52:07;99432.88;;;16.87;73.05
58295;BME280;45705;55.592;37.460;2023-05-23T05:54:33;99431.28;;;16.99;74.01
58295;BME280;45705;55.592;37.460;2023-05-23T05:56:59;99416.97;;;16.93;73.74
58295;BME280;45705;55.592;37.460;2023-05-23T05:59:25;99435.97;;;16.86;74.23
58295;BME280;45705;55.592;37.460;2023-05-23T06:01:51;99425.66;;;17.07;73.22
58295;BME280;45705;55.592;37.460;2023-05-23T06:04:17;99436.75;;;17.11;72.09
58295;BME280;45705;55.592;37.460;2023-05-23T06:06:43;99432.03;;;17.36;70.60
58295;BME280;45705;55.592;37.460;2023-05-23T06:09:08;99431.63;;;17.62;70.22
58295;BME280;45705;55.592;37.460;2023-05-23T06:11:35;99430.47;;;17.63;69.24
58295;BME280;45705;55.592;37.460;2023-05-23T06:14:03;99409.66;;;18.06;68.89
58295;BME280;45705;55.592;37.460;2023-05-23T06:16:29;99410.97;;;18.57;66.50
58295;BME280;45705;55.592;37.460;2023-05-23T06:18:54;99417.25;;;18.41;65.69
58295;BME280;45705;55.592;37.460;2023-05-23T06:21:22;99407.75;;;18.55;65.17
58295;BME280;45705;55.592;37.460;2023-05-23T06:23:48;99399.78;;;18.49;67.58
58295;BME280;45705;55.592;37.460;2023-05-23T06:26:14;99395.75;;;18.15;68.10
58295;BME280;45705;55.592;37.460;2023-05-23T06:28:39;99400.72;;;18.09;68.17
58295;BME280;45705;55.592;37.460;2023-05-23T06:31:05;99399.25;;;18.60;66.51
58295;BME280;45705;55.592;37.460;2023-05-23T06:33:35;99381.81;;;19.23;63.46
58295;BME280;45705;55.592;37.460;2023-05-23T06:36:00;99386.84;;;20.15;58.63
58295;BME280;45705;55.592;37.460;2023-05-23T06:38:28;99384.22;;;20.95;55.32
58295;BME280;45705;55.592;37.460;2023-05-23T06:40:54;99384.75;;;20.31;58.20
58295;BME280;45705;55.592;37.460;2023-05-23T06:43:20;99384.19;;;19.99;57.84
58295;BME280;45705;55.592;37.460;2023-05-23T06:45:50;99388.53;;;19.61;60.42
58295;BME280;45705;55.592;37.460;2023-05-23T06:48:16;99378.84;;;20.10;59.74
58295;BME280;45705;55.592;37.460;2023-05-23T06:50:43;99380.47;;;20.83;57.70
58295;BME280;45705;55.592;37.460;2023-05-23T06:53:10;99386.88;;;20.64;55.79
58295;BME280;45705;55.592;37.460;2023-05-23T06:55:35;99374.31;;;20.67;55.87
58295;BME280;45705;55.592;37.460;2023-05-23T06:58:01;99374.56;;;21.42;54.30
58295;BME280;45705;55.592;37.460;2023-05-23T07:00:29;99363.22;;;21.20;52.27
58295;BME280;45705;55.592;37.460;2023-05-23T07:03:19;99369.16;;;21.83;50.66
58295;BME280;45705;55.592;37.460;2023-05-23T07:05:45;99362.00;;;22.16;50.43
58295;BME280;45705;55.592;37.460;2023-05-23T07:08:11;99352.63;;;22.31;49.90
58295;BME280;45705;55.592;37.460;2023-05-23T07:10:39;99356.88;;;22.63;48.79
58295;BME280;45705;55.592;37.460;2023-05-23T07:13:18;99348.84;;;22.09;48.85
58295;BME280;45705;55.592;37.460;2023-05-23T07:15:44;99351.53;;;21.98;48.69
58295;BME280;45705;55.592;37.460;2023-05-23T07:18:12;99361.28;;;21.51;51.40
58295;BME280;45705;55.592;37.460;2023-05-23T07:20:38;99368.16;;;21.34;51.08
58295;BME280;45705;55.592;37.460;2023-05-23T07:23:14;99357.75;;;21.24;51.36
58295;BME280;45705;55.592;37.460;2023-05-23T07:25:40;99358.59;;;21.28;52.45
58295;BME280;45705;55.592;37.460;2023-05-23T07:28:11;99364.28;;;21.39;52.38
58295;BME280;45705;55.592;37.460;2023-05-23T07:30:37;99361.38;;;22.37;48.60
58295;BME280;45705;55.592;37.460;2023-05-23T07:33:03;99361.03;;;22.01;50.24
58295;BME280;45705;55.592;37.460;2023-05-23T07:35:31;99365.09;;;22.11;49.40
58295;BME280;45705;55.592;37.460;2023-05-23T07:37:58;99355.09;;;22.40;49.55
58295;BME280;45705;55.592;37.460;2023-05-23T07:40:23;99362.03;;;22.23;48.50
58295;BME280;45705;55.592;37.460;2023-05-23T07:42:49;99366.31;;;21.76;51.25
58295;BME280;45705;55.592;37.460;2023-05-23T07:45:14;99357.31;;;22.68;49.71
58295;BME280;45705;55.592;37.460;2023-05-23T07:47:42;99361.78;;;21.98;51.70
58295;BME280;45705;55.592;37.460;2023-05-23T07:50:08;99363.81;;;22.01;50.86
58295;BME280;45705;55.592;37.460;2023-05-23T07:52:34;99365.59;;;21.49;52.35
58295;BME280;45705;55.592;37.460;2023-05-23T07:55:03;99367.44;;;21.71;53.13
58295;BME280;45705;55.592;37.460;2023-05-23T07:57:29;99370.72;;;21.47;52.93
58295;BME280;45705;55.592;37.460;2023-05-23T07:59:55;99373.78;;;21.11;52.63
58295;BME280;45705;55.592;37.460;2023-05-23T08:02:23;99363.94;;;21.44;52.23
58295;BME280;45705;55.592;37.460;2023-05-23T08:04:49;99364.72;;;21.14;54.82
58295;BME280;45705;55.592;37.460;2023-05-23T08:07:15;99380.75;;;20.75;55.58
58295;BME280;45705;55.592;37.460;2023-05-23T08:09:45;99376.22;;;20.90;55.40
58295;BME280;45705;55.592;37.460;2023-05-23T08:12:14;99388.28;;;21.04;55.82
58295;BME280;45705;55.592;37.460;2023-05-23T08:14:40;99365.38;;;21.04;56.29
58295;BME280;45705;55.592;37.460;2023-05-23T08:17:13;99370.69;;;20.90;56.48
58295;BME280;45705;55.592;37.460;2023-05-23T08:19:40;99356.25;;;21.00;58.20
58295;BME280;45705;55.592;37.460;2023-05-23T08:22:06;99367.03;;;21.09;59.08
58295;BME280;45705;55.592;37.460;2023-05-23T08:24:32;99362.94;;;20.99;56.41
58295;BME280;45705;55.592;37.460;2023-05-23T08:26:58;99365.56;;;21.18;54.66
58295;BME280;45705;55.592;37.460;2023-05-23T08:29:25;99367.13;;;21.16;56.55
58295;BME280;45705;55.592;37.460;2023-05-23T08:31:50;99369.59;;;20.94;56.94
58295;BME280;45705;55.592;37.460;2023-05-23T08:34:17;99366.13;;;21.01;56.18
58295;BME280;45705;55.592;37.460;2023-05-23T08:36:42;99360.88;;;20.92;57.87
58295;BME280;45705;55.592;37.460;2023-05-23T08:39:12;99354.94;;;20.90;56.85
58295;BME280;45705;55.592;37.460;2023-05-23T08:41:45;99358.09;;;21.49;55.37
58295;BME280;45705;55.592;37.460;2023-05-23T08:44:12;99360.50;;;21.24;56.48
58295;BME280;45705;55.592;37.460;2023-05-23T08:46:45;99354.63;;;21.26;56.55
58295;BME280;45705;55.592;37.460;2023-05-23T08:49:17;99350.94;;;21.45;57.76
58295;BME280;45705;55.592;37.460;2023-05-23T08:51:43;99355.34;;;21.22;56.97
58295;BME280;45705;55.592;37.460;2023-05-23T08:54:14;99349.19;;;21.33;58.30
58295;BME280;45705;55.592;37.460;2023-05-23T08:56:41;99363.66;;;21.22;59.25
58295;BME280;45705;55.592;37.460;2023-05-23T08:59:08;99350.09;;;20.83;60.33
58295;BME280;45705;55.592;37.460;2023-05-23T09:01:35;99351.75;;;20.88;60.87
58295;BME280;45705;55.592;37.460;2023-05-23T09:04:05;99366.81;;;20.44;62.56
58295;BME280;45705;55.592;37.460;2023-05-23T09:06:54;99359.31;;;20.68;62.47
58295;BME280;45705;55.592;37.460;2023-05-23T09:09:21;99360.88;;;21.22;61.47
58295;BME280;45705;55.592;37.460;2023-05-23T09:11:48;99369.53;;;20.64;63.90
58295;BME280;45705;55.592;37.460;2023-05-23T09:14:14;99361.53;;;20.59;67.73
58295;BME280;45705;55.592;37.460;2023-05-23T09:16:45;99350.72;;;20.73;67.82
58295;BME280;45705;55.592;37.460;2023-05-23T09:19:12;99362.22;;;20.75;67.10
58295;BME280;45705;55.592;37.460;2023-05-23T09:21:42;99376.66;;;20.19;68.43
58295;BME280;45705;55.592;37.460;2023-05-23T09:24:14;99370.63;;;20.36;67.77
58295;BME280;45705;55.592;37.460;2023-05-23T09:26:40;99390.69;;;20.33;67.29
58295;BME280;45705;55.592;37.460;2023-05-23T09:29:05;99377.63;;;20.30;69.01
58295;BME280;45705;55.592;37.460;2023-05-23T09:31:31;99396.09;;;20.26;71.13
58295;BME280;45705;55.592;37.460;2023-05-23T09:33:57;99391.06;;;20.09;71.16
58295;BME280;45705;55.592;37.460;2023-05-23T09:36:26;99399.34;;;20.09;71.24
58295;BME280;45705;55.592;37.460;2023-05-23T09:39:00;99401.53;;;19.99;73.07
58295;BME280;45705;55.592;37.460;2023-05-23T09:41:28;99402.59;;;19.72;75.25
58295;BME280;45705;55.592;37.460;2023-05-23T09:43:54;99397.75;;;19.68;78.04
58295;BME280;45705;55.592;37.460;2023-05-23T09:46:20;99406.53;;;19.35;80.33
58295;BME280;45705;55.592;37.460;2023-05-23T09:48:49;99409.81;;;18.89;85.22
58295;BME280;45705;55.592;37.460;2023-05-23T09:51:20;99394.94;;;18.78;84.42
58295;BME280;45705;55.592;37.460;2023-05-23T09:53:46;99402.78;;;18.76;85.68
58295;BME280;45705;55.592;37.460;2023-05-23T09:56:11;99403.84;;;18.72;85.13
58295;BME280;45705;55.592;37.460;2023-05-23T09:58:37;99398.97;;;18.49;87.76
58295;BME280;45705;55.592;37.460;2023-05-23T10:01:03;99413.25;;;18.23;89.72
58295;BME280;45705;55.592;37.460;2023-05-23T10:06:31;99408.88;;;18.06;92.49
58295;BME280;45705;55.592;37.460;2023-05-23T10:09:03;99409.34;;;17.67;95.19
58295;BME280;45705;55.592;37.460;2023-05-23T10:14:09;99417.66;;;17.55;99.11
58295;BME280;45705;55.592;37.460;2023-05-23T10:19:19;99416.94;;;17.58;100.00
58295;BME280;45705;55.592;37.460;2023-05-23T10:21:49;99407.84;;;17.42;100.00
58295;BME280;45705;55.592;37.460;2023-05-23T10:24:15;99400.06;;;17.44;100.00
58295;BME280;45705;55.592;37.460;2023-05-23T10:26:41;99403.03;;;17.39;100.00
58295;BME280;45705;55.592;37.460;2023-05-23T10:29:07;99407.56;;;17.59;100.00
58295;BME280;45705;55.592;37.460;2023-05-23T10:31:33;99418.78;;;17.54;100.00
58295;BME280;45705;55.592;37.460;2023-05-23T10:34:21;99426.03;;;17.46;100.00
58295;BME280;45705;55.592;37.460;2023-05-23T10:37:04;99418.50;;;17.43;100.00
58295;BME280;45705;55.592;37.460;2023-05-23T10:41:59;99432.16;;;17.15;100.00
58295;BME280;45705;55.592;37.460;2023-05-23T10:44:29;99427.16;;;16.92;100.00
58295;BME280;45705;55.592;37.460;2023-05-23T10:46:56;99420.06;;;16.91;100.00
58295;BME280;45705;55.592;37.460;2023-05-23T10:49:38;99424.63;;;17.00;100.00
58295;BME280;45705;55.592;37.460;2023-05-23T10:52:06;99429.75;;;16.77;100.00
58295;BME280;45705;55.592;37.460;2023-05-23T10:54:51;99429.41;;;16.78;100.00
58295;BME280;45705;55.592;37.460;2023-05-23T10:57:20;99424.13;;;16.61;100.00
58295;BME280;45705;55.592;37.460;2023-05-23T10:59:48;99420.97;;;16.83;100.00
58295;BME280;45705;55.592;37.460;2023-05-23T11:02:15;99421.16;;;16.78;100.00
58295;BME280;45705;55.592;37.460;2023-05-23T11:04:43;99421.84;;;16.50;100.00
58295;BME280;45705;55.592;37.460;2023-05-23T11:07:28;99430.53;;;16.40;100.00
58295;BME280;45705;55.592;37.460;2023-05-23T11:10:10;99426.81;;;16.24;100.00
58295;BME280;45705;55.592;37.460;2023-05-23T11:12:39;99433.22;;;16.28;100.00
58295;BME280;45705;55.592;37.460;2023-05-23T11:15:26;99423.63;;;16.34;100.00
58295;BME280;45705;55.592;37.460;2023-05-23T11:17:51;99436.84;;;16.07;100.00
58295;BME280;45705;55.592;37.460;2023-05-23T11:20:18;99431.31;;;15.95;100.00
58295;BME280;45705;55.592;37.460;2023-05-23T11:23:21;99433.34;;;15.86;100.00
58295;BME280;45705;55.592;37.460;2023-05-23T11:25:43;99432.91;;;15.96;100.00
58295;BME280;45705;55.592;37.460;2023-05-23T11:28:09;99441.59;;;15.98;100.00
58295;BME280;45705;55.592;37.460;2023-05-23T11:30:35;99438.41;;;15.96;100.00
58295;BME280;45705;55.592;37.460;2023-05-23T11:33:07;99432.44;;;15.94;100.00
58295;BME280;45705;55.592;37.460;2023-05-23T11:35:36;99430.59;;;15.86;100.00
58295;BME280;45705;55.592;37.460;2023-05-23T11:38:03;99437.66;;;15.87;100.00
58295;BME280;45705;55.592;37.460;2023-05-23T11:40:30;99443.13;;;15.66;100.00
58295;BME280;45705;55.592;37.460;2023-05-23T11:42:56;99437.19;;;15.64;100.00
58295;BME280;45705;55.592;37.460;2023-05-23T11:45:22;99436.66;;;15.70;100.00
58295;BME280;45705;55.592;37.460;2023-05-23T11:47:48;99430.22;;;15.66;100.00
58295;BME280;45705;55.592;37.460;2023-05-23T11:50:16;99425.28;;;15.60;100.00
58295;BME280;45705;55.592;37.460;2023-05-23T11:52:42;99425.84;;;15.74;100.00
58295;BME280;45705;55.592;37.460;2023-05-23T11:55:08;99421.16;;;15.96;100.00
58295;BME280;45705;55.592;37.460;2023-05-23T11:57:37;99416.19;;;15.89;100.00
58295;BME280;45705;55.592;37.460;2023-05-23T12:00:05;99416.28;;;16.13;100.00
58295;BME280;45705;55.592;37.460;2023-05-23T12:02:31;99413.47;;;16.34;100.00
58295;BME280;45705;55.592;37.460;2023-05-23T12:04:56;99411.75;;;16.30;100.00
58295;BME280;45705;55.592;37.460;2023-05-23T12:07:21;99411.28;;;16.28;100.00
58295;BME280;45705;55.592;37.460;2023-05-23T12:09:47;99406.16;;;16.39;100.00
58295;BME280;45705;55.592;37.460;2023-05-23T12:12:13;99406.28;;;16.42;100.00
58295;BME280;45705;55.592;37.460;2023-05-23T12:14:39;99412.25;;;16.57;100.00
58295;BME280;45705;55.592;37.460;2023-05-23T12:17:10;99405.72;;;16.73;100.00
58295;BME280;45705;55.592;37.460;2023-05-23T12:19:35;99400.38;;;16.89;100.00
58295;BME280;45705;55.592;37.460;2023-05-23T12:22:05;99396.25;;;16.96;100.00
58295;BME280;45705;55.592;37.460;2023-05-23T12:24:31;99384.09;;;17.09;100.00
58295;BME280;45705;55.592;37.460;2023-05-23T12:26:57;99381.69;;;17.60;100.00
58295;BME280;45705;55.592;37.460;2023-05-23T12:31:56;99382.59;;;17.64;100.00
58295;BME280;45705;55.592;37.460;2023-05-23T12:34:22;99375.59;;;17.83;100.00
58295;BME280;45705;55.592;37.460;2023-05-23T12:36:48;99374.00;;;18.10;100.00
58295;BME280;45705;55.592;37.460;2023-05-23T12:39:14;99380.94;;;18.20;100.00
58295;BME280;45705;55.592;37.460;2023-05-23T12:41:43;99389.06;;;18.00;100.00
58295;BME280;45705;55.592;37.460;2023-05-23T12:44:08;99381.44;;;17.81;100.00
58295;BME280;45705;55.592;37.460;2023-05-23T12:46:34;99375.25;;;18.13;100.00
58295;BME280;45705;55.592;37.460;2023-05-23T12:49:00;99381.13;;;18.43;100.00
58295;BME280;45705;55.592;37.460;2023-05-23T12:51:26;99373.94;;;18.38;100.00
58295;BME280;45705;55.592;37.460;2023-05-23T12:53:51;99372.16;;;18.46;100.00
58295;BME280;45705;55.592;37.460;2023-05-23T12:56:19;99358.94;;;18.52;100.00
58295;BME280;45705;55.592;37.460;2023-05-23T12:58:45;99356.53;;;18.50;100.00
58295;BME280;45705;55.592;37.460;2023-05-23T13:01:11;99358.72;;;18.76;100.00
58295;BME280;45705;55.592;37.460;2023-05-23T13:03:36;99348.94;;;18.95;100.00
58295;BME280;45705;55.592;37.460;2023-05-23T13:06:02;99353.63;;;19.30;97.80
58295;BME280;45705;55.592;37.460;2023-05-23T13:08:27;99351.03;;;19.37;95.79
58295;BME280;45705;55.592;37.460;2023-05-23T13:10:53;99353.47;;;19.42;96.55
58295;BME280;45705;55.592;37.460;2023-05-23T13:13:19;99351.38;;;19.35;98.46